Main page
METAR-TAF:

METAR-TAF

Airports :

Granada, Spain

Base Aérea de Armilla

latitude: 37-08N, longitude: 003-38-08W, elevation: 700 m

Current weather observation

The report was made 14 hours and 9 minutes ago, at 12:00 UTC
Wind 2 kt from the West/Southwest
Temperature 27°C
Humidity 26%
Pressure 1017 hPa
Visibility 10 km or more
no clouds below 1500 m and no cumulonimbus

METAR: LEGA 281200Z 25002KT CAVOK 27/06 Q1017

Time: 04:09 (02:09 UTC)

Forecast

The report was made 12 hours and 9 minutes ago, at 14:00 UTC
Forecast valid from 28 at 15 UTC to 28 at 24 UTC
Wind 9 kt from the West/Southwest
Visibility 10 km or more
Few clouds at a height of 4500 ft

TAF: LEGA 281400Z 2815/2824 24009KT 9999 FEW045

Weather observations and forecasts of more than 4000 airports (METAR and TAF reports).

The available stations are represented by yellow and red dots on the map.

Hover mouse over dot to see the name of the station.

Then click to see weather observations and forecasts.

To change the map : click on the green buttons with a black cross to zoom in, on the green button with a dash to zoom out, or on the green arrows for adjacent maps.


METAR-TAF: